Time;durP1;ratioP1;P1;durP2;ratioP2;P2;SDS_P1;SDS_P2;PMS_P1;PMS_P2;Temp;Humidity;BMP_temperature;BMP_pressure;BME280_temperature;BME280_humidity;BME280_pressure;Samples;Min_cycle;Max_cycle;Signal;HPM_P1;HPM_P2
2021/06/04 00:00:10;;;;;;;8.23;3.80;;;22.70;73.90;;;;;;5008051;28;20209;-82
2021/06/04 00:02:36;;;;;;;4.15;3.85;;;22.60;74.00;;;;;;5008064;28;20210;-83
2021/06/04 00:05:04;;;;;;;4.45;4.00;;;22.60;74.10;;;;;;5008189;28;20205;-83
2021/06/04 00:07:30;;;;;;;4.35;3.90;;;22.60;74.00;;;;;;5007765;28;20224;-83
2021/06/04 00:09:56;;;;;;;4.22;3.75;;;22.70;73.90;;;;;;5008167;28;20205;-84
2021/06/04 00:12:23;;;;;;;4.20;3.80;;;22.60;73.90;;;;;;5008143;28;20290;-83
2021/06/04 00:14:49;;;;;;;3.83;3.58;;;22.60;74.00;;;;;;5007792;28;21026;-82
2021/06/04 00:17:19;;;;;;;4.70;3.70;;;22.60;73.80;;;;;;5007738;28;20217;-83
2021/06/04 00:19:47;;;;;;;3.70;3.40;;;22.60;74.00;;;;;;5008933;28;20225;-85
2021/06/04 00:22:18;;;;;;;3.80;3.45;;;22.60;74.10;;;;;;5008172;28;20225;-83
2021/06/04 00:24:46;;;;;;;4.03;3.72;;;22.50;74.00;;;;;;5007208;28;20201;-82
2021/06/04 00:27:13;;;;;;;5.18;3.95;;;22.50;74.00;;;;;;5007406;28;20276;-82
2021/06/04 00:29:41;;;;;;;3.67;3.38;;;22.50;74.20;;;;;;5007499;28;20213;-82
2021/06/04 00:32:09;;;;;;;3.40;3.20;;;22.50;74.30;;;;;;5007631;28;20248;-82
2021/06/04 00:34:38;;;;;;;3.85;3.58;;;22.50;74.30;;;;;;5007100;28;20213;-82
2021/06/04 00:37:04;;;;;;;5.38;3.70;;;22.40;74.20;;;;;;5007740;28;20209;-83
2021/06/04 00:39:34;;;;;;;3.78;3.47;;;22.50;74.20;;;;;;5007314;28;20236;-83
2021/06/04 00:42:03;;;;;;;3.58;3.35;;;22.40;74.30;;;;;;5007505;28;20206;-83
2021/06/04 00:44:31;;;;;;;3.65;3.45;;;22.40;74.20;;;;;;5007114;28;20224;-82
2021/06/04 00:46:57;;;;;;;3.92;3.63;;;22.40;74.20;;;;;;5005909;28;20289;-82
2021/06/04 00:49:25;;;;;;;3.63;3.40;;;22.40;74.50;;;;;;5007021;28;20574;-81
2021/06/04 00:51:56;;;;;;;4.97;3.47;;;22.40;74.30;;;;;;5006331;28;20638;-81
2021/06/04 00:54:24;;;;;;;4.07;3.72;;;22.30;74.20;;;;;;5007015;28;20198;-82
2021/06/04 00:56:50;;;;;;;5.25;3.42;;;22.30;74.40;;;;;;5006519;28;20229;-82
2021/06/04 00:59:27;;;;;;;4.32;3.42;;;22.30;74.60;;;;;;5006504;28;20603;-82
2021/06/04 01:01:54;;;;;;;6.00;3.72;;;22.30;74.40;;;;;;5007525;28;20204;-83
2021/06/04 01:04:24;;;;;;;3.63;3.42;;;22.30;74.30;;;;;;5008251;28;20205;-84
2021/06/04 01:06:59;;;;;;;3.75;3.42;;;22.30;74.60;;;;;;5007590;28;20268;-84
2021/06/04 01:09:42;;;;;;;3.47;3.15;;;22.20;74.50;;;;;;5006435;28;20225;-81
2021/06/04 01:12:20;;;;;;;3.67;3.47;;;22.20;74.40;;;;;;5006431;28;20250;-80
2021/06/04 01:14:57;;;;;;;4.25;3.30;;;22.20;74.50;;;;;;5006064;28;20201;-79
2021/06/04 01:17:30;;;;;;;3.75;3.42;;;22.20;74.50;;;;;;5006298;28;20212;-83
2021/06/04 01:20:02;;;;;;;4.97;3.35;;;22.30;74.70;;;;;;5006949;28;20307;-83
2021/06/04 01:23:08;;;;;;;4.15;3.75;;;22.20;74.80;;;;;;5006573;28;20240;-82
2021/06/04 01:25:42;;;;;;;6.15;3.72;;;22.20;75.00;;;;;;5005676;28;20593;-82
2021/06/04 01:28:13;;;;;;;4.00;3.50;;;22.20;74.80;;;;;;5006387;28;20189;-82
2021/06/04 01:30:44;;;;;;;4.75;3.55;;;22.20;74.90;;;;;;5006643;28;20209;-82
2021/06/04 01:33:15;;;;;;;3.92;3.60;;;22.20;74.90;;;;;;5006595;28;20201;-82
2021/06/04 01:35:45;;;;;;;5.38;3.42;;;22.20;75.10;;;;;;5007366;28;20205;-89
2021/06/04 01:38:13;;;;;;;6.82;3.70;;;22.10;75.20;;;;;;5009249;28;20228;-88
2021/06/04 01:40:44;;;;;;;3.92;3.60;;;22.10;75.20;;;;;;5009036;28;20201;-90
2021/06/04 01:43:13;;;;;;;3.90;3.70;;;22.00;75.30;;;;;;5006714;28;20206;-83
2021/06/04 01:45:42;;;;;;;5.47;3.63;;;22.00;75.40;;;;;;5006253;28;20234;-81
2021/06/04 01:48:12;;;;;;;4.88;4.35;;;22.00;75.30;;;;;;5006015;28;20213;-81
2021/06/04 01:50:44;;;;;;;4.85;3.53;;;22.00;75.50;;;;;;5006085;28;20212;-81
2021/06/04 01:53:17;;;;;;;3.85;3.55;;;22.00;75.40;;;;;;5005747;28;20941;-81
2021/06/04 01:55:52;;;;;;;4.45;3.28;;;22.00;75.60;;;;;;5005537;28;20570;-81
2021/06/04 01:58:23;;;;;;;4.72;3.83;;;22.00;75.80;;;;;;5007057;28;20219;-81
2021/06/04 02:00:53;;;;;;;5.68;3.63;;;22.00;75.90;;;;;;5009545;28;20204;-81
2021/06/04 02:03:21;;;;;;;3.78;3.38;;;22.00;75.90;;;;;;5009440;28;20206;-81
2021/06/04 02:05:48;;;;;;;3.65;3.45;;;22.00;75.80;;;;;;5009990;28;20275;-85
2021/06/04 02:08:17;;;;;;;5.30;3.78;;;21.90;75.80;;;;;;5010712;28;20217;-84
2021/06/04 02:10:49;;;;;;;3.80;3.60;;;21.90;75.60;;;;;;5010814;28;20217;-85
2021/06/04 02:13:17;;;;;;;3.30;3.10;;;21.90;75.80;;;;;;5010280;28;20640;-83
2021/06/04 02:15:46;;;;;;;3.70;3.40;;;21.80;76.00;;;;;;5010420;28;20236;-83
2021/06/04 02:18:20;;;;;;;5.10;3.42;;;21.80;76.00;;;;;;5010389;28;20209;-84
2021/06/04 02:20:51;;;;;;;3.78;3.45;;;21.80;76.20;;;;;;5011048;28;20263;-87
2021/06/04 02:23:24;;;;;;;4.05;3.70;;;21.80;76.00;;;;;;5011629;28;20198;-87
2021/06/04 02:26:01;;;;;;;4.18;3.88;;;21.80;76.00;;;;;;5011349;28;20221;-86
2021/06/04 02:28:30;;;;;;;3.78;3.47;;;21.80;76.00;;;;;;5011254;28;20197;-87
2021/06/04 02:31:02;;;;;;;4.20;3.90;;;21.80;76.20;;;;;;5009684;28;20210;-82
2021/06/04 02:33:34;;;;;;;4.15;3.80;;;21.80;76.30;;;;;;5009956;28;20202;-81
2021/06/04 02:36:03;;;;;;;4.20;3.90;;;21.80;76.40;;;;;;5008890;28;20236;-81
2021/06/04 02:38:36;;;;;;;6.25;4.10;;;21.80;76.60;;;;;;5008954;28;20217;-81
2021/06/04 02:41:08;;;;;;;3.83;3.53;;;21.80;76.60;;;;;;5010150;28;20194;-84
2021/06/04 02:43:39;;;;;;;3.75;3.35;;;21.70;76.50;;;;;;5009733;28;20656;-83
2021/06/04 02:46:11;;;;;;;3.97;3.67;;;21.70;76.30;;;;;;5009141;28;20286;-82
2021/06/04 02:48:38;;;;;;;3.97;3.67;;;21.70;76.30;;;;;;5008355;28;20679;-83
2021/06/04 02:51:09;;;;;;;6.22;3.47;;;21.70;76.40;;;;;;5008799;28;20202;-82
2021/06/04 02:53:42;;;;;;;4.28;3.97;;;21.60;76.70;;;;;;5009022;28;20364;-84
2021/06/04 02:56:19;;;;;;;4.10;3.72;;;21.60;76.90;;;;;;5008571;28;20872;-83
2021/06/04 02:58:50;;;;;;;3.80;3.17;;;21.60;76.80;;;;;;5008570;28;20927;-83
2021/06/04 03:01:17;;;;;;;3.83;3.53;;;21.60;76.70;;;;;;5008786;28;20198;-84
2021/06/04 03:03:47;;;;;;;3.88;3.58;;;21.70;76.70;;;;;;5008294;28;20241;-77
2021/06/04 03:06:13;;;;;;;3.85;3.53;;;21.70;76.60;;;;;;5008076;28;20225;-77
2021/06/04 03:08:40;;;;;;;3.67;3.33;;;21.70;76.70;;;;;;5007716;28;20198;-78
2021/06/04 03:11:08;;;;;;;5.60;3.65;;;21.70;76.70;;;;;;5007030;28;20198;-80
2021/06/04 03:13:36;;;;;;;4.00;3.60;;;21.70;76.60;;;;;;5007215;28;20652;-80
2021/06/04 03:16:06;;;;;;;3.83;3.53;;;21.70;76.70;;;;;;5004586;28;20220;-80
2021/06/04 03:18:35;;;;;;;4.30;3.72;;;21.70;76.60;;;;;;5006766;28;20221;-80
2021/06/04 03:21:06;;;;;;;5.93;3.80;;;21.70;76.90;;;;;;5006503;28;20233;-80
2021/06/04 03:23:36;;;;;;;4.78;3.95;;;21.70;76.70;;;;;;5006105;28;20197;-80
2021/06/04 03:26:06;;;;;;;5.15;3.65;;;21.70;77.20;;;;;;5005759;28;20233;-80
2021/06/04 03:28:33;;;;;;;3.75;3.55;;;21.70;76.70;;;;;;5005954;28;20250;-80
2021/06/04 03:31:01;;;;;;;3.90;3.65;;;21.60;76.90;;;;;;5006164;28;20217;-78
2021/06/04 03:33:34;;;;;;;4.18;3.75;;;21.70;76.90;;;;;;5005928;28;20205;-81
2021/06/04 03:36:03;;;;;;;4.10;3.63;;;21.70;77.20;;;;;;5005914;28;20288;-79
2021/06/04 03:38:29;;;;;;;4.15;3.85;;;21.70;77.30;;;;;;5005814;28;20212;-79
2021/06/04 03:40:56;;;;;;;4.53;3.40;;;21.60;77.40;;;;;;5005259;28;20258;-79
2021/06/04 03:43:24;;;;;;;4.30;3.65;;;21.70;77.50;;;;;;5006401;28;20221;-79
2021/06/04 03:45:51;;;;;;;4.40;4.00;;;21.70;77.50;;;;;;5004750;28;20263;-78
2021/06/04 03:48:21;;;;;;;5.43;3.78;;;21.60;77.60;;;;;;5005552;28;20213;-78
2021/06/04 03:50:51;;;;;;;4.00;3.80;;;21.60;77.70;;;;;;5005671;28;20212;-77
2021/06/04 03:53:18;;;;;;;4.20;3.70;;;21.60;78.00;;;;;;5005434;28;20220;-79
2021/06/04 03:55:45;;;;;;;4.18;3.75;;;21.60;78.50;;;;;;5005394;28;20271;-80
2021/06/04 03:58:13;;;;;;;4.13;3.78;;;21.40;79.90;;;;;;5005495;28;20209;-79
2021/06/04 04:00:43;;;;;;;4.55;3.80;;;21.50;80.50;;;;;;4991526;28;20210;-80
2021/06/04 04:03:10;;;;;;;4.38;3.80;;;21.30;81.30;;;;;;5003724;28;20247;-80
2021/06/04 04:05:38;;;;;;;4.32;3.58;;;21.30;81.40;;;;;;5005112;28;20209;-80
2021/06/04 04:08:05;;;;;;;4.20;3.90;;;21.40;81.80;;;;;;5004859;28;20209;-79
2021/06/04 04:10:31;;;;;;;5.03;3.70;;;21.40;81.60;;;;;;5004855;28;21153;-80
2021/06/04 04:12:58;;;;;;;4.30;3.53;;;21.40;82.60;;;;;;5005307;28;20213;-79
2021/06/04 04:15:26;;;;;;;5.87;4.33;;;21.20;82.10;;;;;;5006023;28;20201;-80
2021/06/04 04:17:55;;;;;;;4.40;3.75;;;21.20;82.00;;;;;;5005838;28;20648;-79
2021/06/04 04:20:24;;;;;;;4.00;3.67;;;21.20;81.60;;;;;;5005979;28;21073;-81
2021/06/04 04:22:53;;;;;;;4.45;4.05;;;21.20;81.70;;;;;;4985216;28;20214;-80
2021/06/04 04:25:19;;;;;;;4.53;3.97;;;21.30;81.70;;;;;;4986525;28;20247;-81
2021/06/04 04:27:46;;;;;;;4.40;3.95;;;21.30;81.60;;;;;;4985902;28;20230;-81
2021/06/04 04:30:15;;;;;;;4.78;4.00;;;21.30;81.80;;;;;;4986407;28;20206;-81
2021/06/04 04:32:41;;;;;;;3.90;3.60;;;21.30;81.40;;;;;;4985582;28;20362;-80
2021/06/04 04:35:10;;;;;;;5.00;4.07;;;21.10;81.80;;;;;;4986281;28;20232;-80
2021/06/04 04:37:36;;;;;;;4.70;3.73;;;21.10;82.40;;;;;;4985927;28;20692;-81
2021/06/04 04:40:06;;;;;;;4.20;3.90;;;20.90;83.00;;;;;;4983981;28;20710;-81
2021/06/04 04:42:33;;;;;;;4.57;4.18;;;20.90;83.20;;;;;;4987233;28;20214;-80
2021/06/04 04:44:59;;;;;;;4.83;3.90;;;20.70;83.40;;;;;;4985790;28;20818;-81
2021/06/04 04:47:26;;;;;;;4.75;4.15;;;20.80;83.60;;;;;;4986069;28;20265;-81
2021/06/04 04:49:52;;;;;;;4.40;4.10;;;20.70;84.30;;;;;;4985821;28;20242;-78
2021/06/04 04:52:20;;;;;;;5.73;4.30;;;20.70;84.00;;;;;;4986370;28;20206;-79
2021/06/04 04:54:49;;;;;;;4.57;4.17;;;20.80;83.70;;;;;;4986003;28;20207;-79
2021/06/04 04:57:18;;;;;;;4.88;4.30;;;20.90;83.70;;;;;;4986158;28;20222;-79
2021/06/04 04:59:45;;;;;;;4.10;3.70;;;21.00;84.20;;;;;;4982619;28;20221;-79
2021/06/04 05:02:12;;;;;;;5.68;4.28;;;21.00;84.10;;;;;;4985288;28;20649;-80
2021/06/04 05:04:38;;;;;;;4.45;4.15;;;21.10;84.00;;;;;;4985642;28;20287;-80
2021/06/04 05:07:05;;;;;;;4.40;4.00;;;21.00;84.30;;;;;;4985831;28;20291;-79
2021/06/04 05:09:31;;;;;;;10.60;4.30;;;21.10;85.10;;;;;;4986364;28;20674;-80
2021/06/04 05:11:57;;;;;;;5.05;4.22;;;21.00;86.40;;;;;;4985772;28;20716;-80
2021/06/04 05:14:25;;;;;;;5.05;4.55;;;21.00;87.20;;;;;;4985412;28;20261;-83
2021/06/04 05:16:52;;;;;;;5.37;4.53;;;21.00;87.40;;;;;;4986647;28;20206;-82
2021/06/04 05:19:18;;;;;;;5.38;4.38;;;21.00;87.30;;;;;;4985922;28;20708;-82
2021/06/04 05:21:45;;;;;;;4.88;4.40;;;21.00;87.60;;;;;;4986649;28;20295;-80
2021/06/04 05:24:11;;;;;;;5.10;4.60;;;20.90;88.00;;;;;;4985851;28;20257;-79
2021/06/04 05:26:38;;;;;;;5.03;4.20;;;20.90;88.40;;;;;;4985266;28;20268;-79
2021/06/04 05:29:06;;;;;;;5.00;4.50;;;20.90;89.10;;;;;;4985206;28;20573;-78
2021/06/04 05:31:34;;;;;;;13.17;4.67;;;20.70;89.60;;;;;;4985232;28;20569;-78
2021/06/04 05:34:01;;;;;;;4.57;4.17;;;20.70;89.20;;;;;;4984345;28;20233;-79
2021/06/04 05:36:32;;;;;;;5.85;4.68;;;20.60;89.70;;;;;;4985424;28;20947;-79
2021/06/04 05:39:00;;;;;;;5.00;4.50;;;20.60;90.00;;;;;;4984585;28;20245;-79
2021/06/04 05:41:26;;;;;;;5.53;5.13;;;20.60;90.00;;;;;;4985064;28;20201;-78
2021/06/04 05:43:53;;;;;;;5.23;4.60;;;20.60;90.30;;;;;;4985335;28;20220;-79
2021/06/04 05:46:20;;;;;;;4.70;4.37;;;20.50;90.70;;;;;;4984997;28;20276;-79
2021/06/04 05:48:49;;;;;;;4.97;4.47;;;20.50;91.10;;;;;;4985309;28;20214;-78
2021/06/04 05:51:19;;;;;;;5.40;5.00;;;20.60;91.20;;;;;;4984978;28;20202;-78
2021/06/04 05:53:46;;;;;;;5.80;5.40;;;20.50;92.00;;;;;;4984893;28;20210;-79
2021/06/04 05:56:13;;;;;;;6.20;5.70;;;20.50;92.30;;;;;;4985382;28;20249;-78
2021/06/04 05:58:42;;;;;;;6.13;4.97;;;20.50;92.30;;;;;;4984046;28;20218;-79
2021/06/04 06:01:11;;;;;;;5.40;5.00;;;20.50;92.40;;;;;;4982912;28;20668;-79
2021/06/04 06:03:38;;;;;;;6.80;6.30;;;20.60;92.60;;;;;;4984780;28;20203;-79
2021/06/04 06:06:07;;;;;;;7.50;6.20;;;20.60;93.40;;;;;;4983128;28;20256;-79
2021/06/04 06:08:34;;;;;;;8.63;5.33;;;20.50;93.60;;;;;;4984249;28;20202;-80
2021/06/04 06:11:01;;;;;;;5.70;5.17;;;20.50;93.80;;;;;;4984734;28;20198;-80
2021/06/04 06:13:28;;;;;;;5.40;5.00;;;20.50;93.80;;;;;;4984561;28;20203;-80
2021/06/04 06:15:55;;;;;;;6.33;5.70;;;20.60;93.90;;;;;;4984620;28;20214;-79
2021/06/04 06:18:22;;;;;;;7.17;5.43;;;20.70;94.00;;;;;;4984625;28;20217;-80
2021/06/04 06:20:49;;;;;;;5.70;5.23;;;20.60;93.70;;;;;;4984667;28;20226;-79
2021/06/04 06:23:21;;;;;;;5.43;5.03;;;20.70;93.80;;;;;;4983924;28;20622;-79
2021/06/04 06:25:50;;;;;;;6.23;5.57;;;20.80;94.10;;;;;;4980562;28;20206;-81
2021/06/04 06:28:18;;;;;;;8.27;5.50;;;20.80;94.10;;;;;;4983932;28;20210;-84
2021/06/04 06:30:45;;;;;;;6.73;5.57;;;20.70;94.20;;;;;;4984913;28;20221;-81
2021/06/04 06:33:12;;;;;;;6.47;4.90;;;20.70;94.00;;;;;;4984649;28;20207;-80
2021/06/04 06:35:41;;;;;;;5.83;5.33;;;20.60;94.20;;;;;;4984695;28;20308;-78
2021/06/04 06:38:09;;;;;;;6.20;5.60;;;20.60;94.50;;;;;;4984678;28;20210;-79
2021/06/04 06:40:38;;;;;;;6.90;4.93;;;20.60;94.40;;;;;;4984887;28;20267;-79
2021/06/04 06:43:05;;;;;;;5.87;5.23;;;20.50;94.40;;;;;;4981681;28;20207;-79
2021/06/04 06:45:32;;;;;;;5.57;5.10;;;20.60;94.30;;;;;;4985313;28;20245;-79
2021/06/04 06:47:58;;;;;;;12.97;5.30;;;20.60;94.30;;;;;;4987489;28;20275;-80
2021/06/04 06:50:29;;;;;;;9.70;6.70;;;20.60;94.50;;;;;;4985053;28;20213;-80
2021/06/04 06:52:56;;;;;;;5.70;5.20;;;20.60;94.40;;;;;;4987731;28;20194;-80
2021/06/04 06:55:22;;;;;;;5.90;5.10;;;20.70;94.30;;;;;;4987472;28;20230;-80
2021/06/04 06:57:50;;;;;;;5.43;5.03;;;20.70;94.40;;;;;;4987394;28;20654;-79
2021/06/04 07:00:20;;;;;;;7.13;5.30;;;20.80;94.40;;;;;;4986871;28;20202;-80
2021/06/04 07:02:47;;;;;;;9.55;6.35;;;20.90;94.60;;;;;;4979788;28;20230;-80
2021/06/04 07:05:14;;;;;;;5.88;5.32;;;21.00;94.90;;;;;;4987622;28;20202;-80
2021/06/04 07:07:40;;;;;;;6.07;5.10;;;21.00;95.10;;;;;;4987914;28;20742;-80
2021/06/04 07:10:08;;;;;;;6.90;5.80;;;21.00;95.50;;;;;;4988156;28;20245;-80
2021/06/04 07:12:34;;;;;;;7.77;5.73;;;21.00;95.40;;;;;;4987840;28;20578;-80
2021/06/04 07:15:03;;;;;;;5.97;5.40;;;20.90;95.70;;;;;;4988311;28;20210;-80
2021/06/04 07:17:30;;;;;;;7.50;5.50;;;21.00;95.30;;;;;;4988050;28;20203;-80
2021/06/04 07:19:56;;;;;;;11.77;5.70;;;21.00;95.20;;;;;;4987508;28;20325;-80
2021/06/04 07:22:22;;;;;;;9.23;5.82;;;21.10;95.00;;;;;;4986805;28;20681;-81
2021/06/04 07:24:49;;;;;;;6.70;5.53;;;21.30;95.00;;;;;;4986755;28;20714;-80
2021/06/04 07:27:15;;;;;;;9.45;5.63;;;21.30;94.50;;;;;;4986922;28;20241;-80
2021/06/04 07:29:42;;;;;;;7.53;5.15;;;21.40;94.20;;;;;;4986666;28;20543;-80
2021/06/04 07:32:09;;;;;;;8.52;5.57;;;21.40;93.50;;;;;;4986528;28;20295;-78
2021/06/04 07:34:36;;;;;;;11.48;5.40;;;21.50;92.70;;;;;;4986608;28;20599;-78
2021/06/04 07:37:03;;;;;;;8.38;5.10;;;21.50;92.40;;;;;;4984143;28;20213;-78
2021/06/04 07:39:32;;;;;;;6.90;4.95;;;21.50;92.20;;;;;;4986292;28;20654;-78
2021/06/04 07:41:59;;;;;;;5.35;4.95;;;21.50;92.10;;;;;;4986447;28;20257;-78
2021/06/04 07:44:26;;;;;;;5.30;4.50;;;21.50;92.40;;;;;;4986571;28;20199;-78
2021/06/04 07:46:54;;;;;;;6.60;4.72;;;21.50;92.00;;;;;;4986174;28;20234;-78
2021/06/04 07:49:22;;;;;;;6.35;5.07;;;21.50;91.90;;;;;;4986497;28;20573;-78
2021/06/04 07:51:52;;;;;;;5.80;5.05;;;21.50;91.70;;;;;;4986326;28;20669;-78
2021/06/04 07:54:19;;;;;;;6.90;5.00;;;21.50;91.50;;;;;;4986502;28;20203;-79
2021/06/04 07:56:46;;;;;;;6.88;4.90;;;21.50;91.50;;;;;;4985784;28;20720;-78
2021/06/04 07:59:13;;;;;;;6.07;5.47;;;21.50;91.50;;;;;;4987047;28;20206;-76
2021/06/04 08:01:40;;;;;;;9.93;5.63;;;21.50;91.80;;;;;;4986564;28;20657;-82
2021/06/04 08:04:07;;;;;;;5.57;4.88;;;21.50;91.90;;;;;;4987920;28;20218;-79
2021/06/04 08:06:35;;;;;;;6.03;4.97;;;21.50;91.70;;;;;;4987478;28;20261;-79
2021/06/04 08:09:01;;;;;;;8.02;4.80;;;21.50;91.80;;;;;;4987599;28;20224;-79
2021/06/04 08:11:31;;;;;;;6.68;5.15;;;21.50;91.90;;;;;;4987709;28;20283;-80
2021/06/04 08:13:59;;;;;;;7.22;4.65;;;21.60;91.60;;;;;;4987715;28;20210;-80
2021/06/04 08:16:27;;;;;;;7.07;4.88;;;21.60;91.70;;;;;;4987743;28;20214;-80
2021/06/04 08:18:54;;;;;;;6.07;5.03;;;21.60;91.70;;;;;;4987277;28;20578;-80
2021/06/04 08:21:25;;;;;;;5.50;5.07;;;21.70;91.70;;;;;;4987405;28;20586;-80
2021/06/04 08:23:52;;;;;;;5.13;4.70;;;21.70;91.90;;;;;;4987779;28;20546;-80
2021/06/04 08:26:21;;;;;;;6.28;5.20;;;21.70;92.10;;;;;;4987157;28;20651;-79
2021/06/04 08:28:48;;;;;;;5.13;4.72;;;21.70;92.00;;;;;;4987474;28;20209;-79
2021/06/04 08:31:17;;;;;;;7.15;5.20;;;21.70;91.90;;;;;;4988017;28;20259;-81
2021/06/04 08:33:43;;;;;;;7.45;5.45;;;21.70;92.00;;;;;;4987303;28;20218;-80
2021/06/04 08:36:13;;;;;;;13.38;5.65;;;21.70;92.20;;;;;;4987400;28;20210;-79
2021/06/04 08:38:41;;;;;;;6.00;5.28;;;21.60;92.50;;;;;;4987445;28;20229;-80
2021/06/04 08:41:16;;;;;;;9.95;5.18;;;21.60;92.60;;;;;;4987653;28;20564;-80
2021/06/04 08:43:55;;;;;;;11.60;5.80;;;21.50;92.80;;;;;;4986972;28;20198;-80
2021/06/04 08:46:27;;;;;;;8.73;5.57;;;21.50;92.80;;;;;;4986709;28;20241;-81
2021/06/04 08:48:57;;;;;;;8.68;5.85;;;21.50;92.70;;;;;;4987126;28;20202;-81
2021/06/04 08:51:31;;;;;;;17.17;6.30;;;21.40;92.70;;;;;;4987033;28;20680;-81
2021/06/04 08:54:29;;;;;;;9.65;5.43;;;21.40;92.80;;;;;;4987229;28;20216;-81
2021/06/04 08:57:02;;;;;;;9.65;5.15;;;21.40;92.90;;;;;;4987202;28;20198;-81
2021/06/04 08:59:30;;;;;;;10.57;6.00;;;21.40;93.10;;;;;;4987709;28;20581;-80
2021/06/04 09:01:59;;;;;;;10.57;6.07;;;21.40;93.10;;;;;;4987039;28;20206;-81
2021/06/04 09:04:29;;;;;;;11.75;5.65;;;21.40;93.20;;;;;;4986838;28;20784;-81
2021/06/04 09:07:00;;;;;;;14.80;6.20;;;21.40;93.50;;;;;;4986798;28;20245;-80
2021/06/04 09:09:32;;;;;;;10.53;6.03;;;21.20;93.80;;;;;;4986547;28;20207;-80
2021/06/04 09:12:04;;;;;;;6.97;6.28;;;21.30;94.00;;;;;;4986649;28;20210;-80
2021/06/04 09:14:30;;;;;;;11.10;6.03;;;21.30;94.00;;;;;;4987219;28;20199;-80
2021/06/04 09:17:09;;;;;;;7.50;5.87;;;21.30;93.70;;;;;;4986344;28;20214;-81
2021/06/04 09:19:46;;;;;;;8.57;6.73;;;21.30;93.60;;;;;;4986732;28;20234;-80
2021/06/04 09:22:12;;;;;;;15.37;6.10;;;21.30;93.80;;;;;;4987349;28;20202;-81
2021/06/04 09:24:42;;;;;;;7.07;5.72;;;21.30;94.00;;;;;;4987149;28;20202;-80
2021/06/04 09:27:31;;;;;;;9.05;6.10;;;21.30;93.90;;;;;;4986353;28;20889;-80
2021/06/04 09:30:24;;;;;;;12.52;6.00;;;21.30;93.90;;;;;;4986817;28;20194;-81
2021/06/04 09:33:07;;;;;;;6.85;5.50;;;21.40;94.10;;;;;;4973107;28;20650;-80
2021/06/04 09:35:34;;;;;;;9.45;5.75;;;21.40;94.30;;;;;;4986663;28;20202;-80
2021/06/04 09:38:12;;;;;;;8.65;6.13;;;21.40;94.50;;;;;;4986633;28;20214;-80
2021/06/04 09:40:40;;;;;;;8.50;6.65;;;21.40;94.40;;;;;;4986702;28;20217;-80
2021/06/04 09:43:15;;;;;;;9.23;5.80;;;21.30;94.50;;;;;;4985840;28;20580;-80
2021/06/04 09:45:53;;;;;;;10.23;6.15;;;21.30;94.50;;;;;;4986400;28;20242;-78
2021/06/04 09:48:37;;;;;;;12.38;6.22;;;21.40;94.50;;;;;;4986259;28;21014;-78
2021/06/04 09:51:10;;;;;;;9.33;5.43;;;21.40;94.50;;;;;;4986057;28;20201;-78
2021/06/04 09:53:36;;;;;;;10.50;6.13;;;21.50;94.70;;;;;;4986510;28;20526;-78
2021/06/04 09:56:28;;;;;;;8.00;5.63;;;21.50;94.80;;;;;;4986931;28;20237;-78
2021/06/04 09:58:59;;;;;;;6.70;6.10;;;21.60;94.90;;;;;;4986430;28;20194;-78
2021/06/04 10:01:28;;;;;;;6.45;5.95;;;21.60;95.10;;;;;;4986433;28;20693;-78
2021/06/04 10:03:58;;;;;;;7.53;5.45;;;21.60;95.20;;;;;;4986072;28;20202;-78
2021/06/04 10:06:44;;;;;;;6.82;6.00;;;21.70;95.70;;;;;;4986348;28;20245;-79
2021/06/04 10:09:27;;;;;;;6.30;5.40;;;21.70;95.30;;;;;;4985974;28;21080;-78
2021/06/04 10:12:01;;;;;;;6.90;5.53;;;21.70;95.40;;;;;;4983607;28;20222;-78
2021/06/04 10:14:49;;;;;;;10.40;6.13;;;21.80;95.60;;;;;;4986318;28;20199;-78
2021/06/04 10:17:40;;;;;;;6.50;6.00;;;21.90;95.60;;;;;;4986299;28;20245;-78
2021/06/04 10:20:31;;;;;;;6.25;5.50;;;21.90;95.50;;;;;;4983825;28;20236;-78
2021/06/04 10:23:21;;;;;;;7.60;5.82;;;21.90;95.20;;;;;;4989453;28;20194;-80
2021/06/04 10:25:52;;;;;;;12.65;6.65;;;22.00;95.20;;;;;;4989313;28;20206;-80
2021/06/04 10:28:39;;;;;;;10.07;5.88;;;22.00;95.20;;;;;;4989445;28;20226;-80
2021/06/04 10:31:28;;;;;;;11.93;6.85;;;22.00;95.20;;;;;;4989402;28;20191;-80
2021/06/04 10:34:01;;;;;;;8.30;6.30;;;22.10;95.20;;;;;;4989257;28;20218;-80
2021/06/04 10:36:34;;;;;;;7.07;6.38;;;22.10;95.30;;;;;;4989397;28;20253;-81
2021/06/04 10:39:07;;;;;;;8.38;6.13;;;22.20;95.30;;;;;;4989067;28;20198;-80
2021/06/04 10:41:41;;;;;;;8.77;6.10;;;22.20;95.50;;;;;;4989212;28;20199;-80
2021/06/04 10:44:12;;;;;;;8.45;5.88;;;22.20;95.20;;;;;;4989270;28;20214;-80
2021/06/04 10:46:47;;;;;;;9.45;5.90;;;22.30;94.90;;;;;;4988637;28;20329;-80
2021/06/04 10:49:26;;;;;;;8.52;6.43;;;22.50;95.00;;;;;;4989117;28;20210;-80
2021/06/04 10:51:56;;;;;;;11.43;6.40;;;22.70;94.80;;;;;;4989074;28;20201;-80
2021/06/04 10:54:29;;;;;;;7.93;6.03;;;23.10;94.60;;;;;;4988989;28;20194;-80
2021/06/04 10:57:01;;;;;;;6.38;5.10;;;23.40;94.00;;;;;;4988798;28;20220;-80
2021/06/04 10:59:38;;;;;;;7.93;4.97;;;23.60;92.80;;;;;;4988920;28;20194;-80
2021/06/04 11:02:16;;;;;;;8.32;4.38;;;23.80;91.80;;;;;;4989057;28;20253;-80
2021/06/04 11:04:56;;;;;;;7.72;4.50;;;24.10;91.30;;;;;;4989027;28;20190;-80
2021/06/04 11:07:30;;;;;;;9.18;4.05;;;24.20;89.60;;;;;;4988512;28;20707;-80
2021/06/04 11:10:06;;;;;;;34.75;5.72;;;24.40;89.80;;;;;;4988552;28;20769;-80
2021/06/04 11:12:55;;;;;;;6.72;4.38;;;24.50;90.10;;;;;;4988913;28;20243;-80
2021/06/04 11:15:26;;;;;;;4.28;3.97;;;24.60;90.30;;;;;;4988556;28;20210;-80
2021/06/04 11:18:00;;;;;;;9.68;4.75;;;24.70;90.00;;;;;;4988616;28;20312;-80
2021/06/04 11:20:33;;;;;;;9.02;4.60;;;24.80;89.40;;;;;;4988655;28;20237;-80
2021/06/04 11:23:03;;;;;;;8.43;4.40;;;24.80;90.10;;;;;;4988231;28;20728;-80
2021/06/04 11:25:42;;;;;;;5.13;4.35;;;24.80;88.90;;;;;;4988184;28;20256;-80
2021/06/04 11:28:26;;;;;;;9.00;4.40;;;24.70;87.30;;;;;;4988416;28;20229;-79
2021/06/04 11:30:55;;;;;;;8.27;4.72;;;24.70;86.70;;;;;;4987923;28;20648;-79
2021/06/04 11:33:25;;;;;;;4.97;4.65;;;24.60;86.20;;;;;;4988435;28;20259;-79
2021/06/04 11:35:55;;;;;;;7.50;4.68;;;24.50;85.40;;;;;;4988236;28;20221;-80
2021/06/04 11:38:30;;;;;;;9.13;5.30;;;24.40;86.40;;;;;;4988130;28;20214;-80
2021/06/04 11:41:09;;;;;;;5.18;4.53;;;24.20;86.90;;;;;;4988213;28;20197;-80
2021/06/04 11:43:39;;;;;;;7.43;5.38;;;24.10;87.90;;;;;;4987867;28;20680;-80
2021/06/04 11:46:19;;;;;;;5.50;5.00;;;24.10;88.30;;;;;;4987633;28;20241;-80
2021/06/04 11:49:04;;;;;;;5.40;4.78;;;24.10;87.80;;;;;;4988067;28;20237;-80
2021/06/04 11:51:47;;;;;;;5.13;4.78;;;24.30;87.60;;;;;;4988287;28;20201;-81
2021/06/04 11:54:36;;;;;;;5.30;4.80;;;24.60;87.30;;;;;;4987801;28;20581;-78
2021/06/04 11:57:07;;;;;;;7.65;4.78;;;25.10;87.70;;;;;;4978279;28;20275;-79
2021/06/04 11:59:50;;;;;;;6.78;4.28;;;25.50;87.00;;;;;;4988415;28;20218;-79
2021/06/04 12:02:38;;;;;;;5.00;4.60;;;25.80;87.30;;;;;;4986450;28;20720;-79
2021/06/04 12:05:36;;;;;;;6.03;4.25;;;26.20;84.60;;;;;;4988192;28;20206;-79
2021/06/04 12:08:33;;;;;;;5.97;4.53;;;26.50;85.30;;;;;;4988640;28;20241;-79
2021/06/04 12:11:05;;;;;;;5.97;4.63;;;26.80;83.60;;;;;;4987705;28;20293;-79
2021/06/04 12:13:34;;;;;;;5.13;4.63;;;27.00;82.00;;;;;;4987617;28;20699;-79
2021/06/04 12:16:27;;;;;;;4.78;4.38;;;27.10;81.20;;;;;;4987483;28;20692;-79
2021/06/04 12:19:03;;;;;;;7.78;4.10;;;27.00;81.20;;;;;;4987313;28;20207;-79
2021/06/04 12:22:00;;;;;;;5.68;4.40;;;27.20;81.90;;;;;;4988912;28;20575;-79
2021/06/04 12:24:52;;;;;;;5.38;4.40;;;27.50;81.00;;;;;;4987572;28;20206;-78
2021/06/04 12:28:02;;;;;;;4.80;4.40;;;27.70;80.00;;;;;;4987302;28;20267;-79
2021/06/04 12:30:55;;;;;;;4.45;4.15;;;27.90;79.40;;;;;;4987376;28;20253;-78
2021/06/04 12:33:52;;;;;;;4.28;3.97;;;28.10;79.10;;;;;;4979538;28;20788;-78
2021/06/04 12:36:53;;;;;;;4.55;4.03;;;28.30;78.20;;;;;;4987688;28;20210;-78
2021/06/04 12:39:44;;;;;;;4.63;4.32;;;28.30;77.30;;;;;;4987651;28;20285;-78
2021/06/04 12:42:15;;;;;;;4.75;4.30;;;28.00;74.90;;;;;;4978886;28;20679;-79
2021/06/04 12:44:53;;;;;;;5.15;3.78;;;27.80;77.00;;;;;;4987192;28;20206;-78
2021/06/04 12:47:24;;;;;;;4.95;4.45;;;27.70;76.70;;;;;;4987485;28;20249;-79
2021/06/04 12:49:50;;;;;;;4.38;3.97;;;27.80;76.80;;;;;;4987274;28;20206;-78
2021/06/04 12:52:20;;;;;;;4.38;3.97;;;27.70;76.00;;;;;;4987385;28;20593;-78
2021/06/04 12:54:48;;;;;;;4.93;4.43;;;27.80;76.70;;;;;;4987340;28;20230;-78
2021/06/04 12:57:23;;;;;;;4.32;3.92;;;27.70;77.60;;;;;;4987210;28;20633;-78
2021/06/04 12:59:51;;;;;;;4.93;4.32;;;27.70;78.20;;;;;;4987404;28;20206;-79
2021/06/04 13:02:23;;;;;;;6.45;4.70;;;27.60;78.20;;;;;;4987034;28;20214;-78
2021/06/04 13:04:53;;;;;;;8.55;4.85;;;27.50;79.40;;;;;;4987271;28;20195;-79
2021/06/04 13:07:26;;;;;;;4.43;4.03;;;27.40;79.50;;;;;;4987121;28;20329;-79